sensor_id;sensor_type;location;lat;lon;timestamp;P1;P2;P0
51052;PMS5003;37093;37.716;-122.060;2022-11-15T00:01:08;8;5;
51052;PMS5003;37093;37.716;-122.060;2022-11-15T00:03:41;15;5;
51052;PMS5003;37093;37.716;-122.060;2022-11-15T00:06:10;8;8;
51052;PMS5003;37093;37.716;-122.060;2022-11-15T00:08:38;8;7;
51052;PMS5003;37093;37.716;-122.060;2022-11-15T00:11:08;10;6;
51052;PMS5003;37093;37.716;-122.060;2022-11-15T00:13:39;6;5;
51052;PMS5003;37093;37.716;-122.060;2022-11-15T00:16:08;6;6;
51052;PMS5003;37093;37.716;-122.060;2022-11-15T00:18:37;7;6;
51052;PMS5003;37093;37.716;-122.060;2022-11-15T00:21:06;8;6;
51052;PMS5003;37093;37.716;-122.060;2022-11-15T00:23:37;7;5;
51052;PMS5003;37093;37.716;-122.060;2022-11-15T00:26:05;9;7;
51052;PMS5003;37093;37.716;-122.060;2022-11-15T00:28:37;7;7;
51052;PMS5003;37093;37.716;-122.060;2022-11-15T00:31:07;6;6;
51052;PMS5003;37093;37.716;-122.060;2022-11-15T00:33:38;8;6;
51052;PMS5003;37093;37.716;-122.060;2022-11-15T00:36:07;5;5;
51052;PMS5003;37093;37.716;-122.060;2022-11-15T00:38:37;6;5;
51052;PMS5003;37093;37.716;-122.060;2022-11-15T00:41:06;5;3;
51052;PMS5003;37093;37.716;-122.060;2022-11-15T00:43:35;4;4;
51052;PMS5003;37093;37.716;-122.060;2022-11-15T00:46:03;9;6;
51052;PMS5003;37093;37.716;-122.060;2022-11-15T00:48:33;9;6;
51052;PMS5003;37093;37.716;-122.060;2022-11-15T00:51:01;7;7;
51052;PMS5003;37093;37.716;-122.060;2022-11-15T00:53:30;6;5;
51052;PMS5003;37093;37.716;-122.060;2022-11-15T00:55:58;5;5;
51052;PMS5003;37093;37.716;-122.060;2022-11-15T00:58:27;8;5;
51052;PMS5003;37093;37.716;-122.060;2022-11-15T01:00:55;5;5;
51052;PMS5003;37093;37.716;-122.060;2022-11-15T01:03:24;6;6;
51052;PMS5003;37093;37.716;-122.060;2022-11-15T01:05:52;7;6;
51052;PMS5003;37093;37.716;-122.060;2022-11-15T01:08:21;6;6;
51052;PMS5003;37093;37.716;-122.060;2022-11-15T01:10:49;11;7;
51052;PMS5003;37093;37.716;-122.060;2022-11-15T01:13:18;12;6;
51052;PMS5003;37093;37.716;-122.060;2022-11-15T01:15:46;10;7;
51052;PMS5003;37093;37.716;-122.060;2022-11-15T01:18:15;9;8;
51052;PMS5003;37093;37.716;-122.060;2022-11-15T01:20:44;7;7;
51052;PMS5003;37093;37.716;-122.060;2022-11-15T01:23:12;12;8;
51052;PMS5003;37093;37.716;-122.060;2022-11-15T01:25:41;10;9;
51052;PMS5003;37093;37.716;-122.060;2022-11-15T01:28:09;9;8;
51052;PMS5003;37093;37.716;-122.060;2022-11-15T01:30:38;9;8;
51052;PMS5003;37093;37.716;-122.060;2022-11-15T01:33:07;7;7;
51052;PMS5003;37093;37.716;-122.060;2022-11-15T01:35:38;7;5;
51052;PMS5003;37093;37.716;-122.060;2022-11-15T01:38:07;8;7;
51052;PMS5003;37093;37.716;-122.060;2022-11-15T01:40:36;9;9;
51052;PMS5003;37093;37.716;-122.060;2022-11-15T01:43:26;6;6;
51052;PMS5003;37093;37.716;-122.060;2022-11-15T01:45:56;11;7;
51052;PMS5003;37093;37.716;-122.060;2022-11-15T01:48:30;17;13;
51052;PMS5003;37093;37.716;-122.060;2022-11-15T01:51:01;19;10;
51052;PMS5003;37093;37.716;-122.060;2022-11-15T01:53:33;10;10;
51052;PMS5003;37093;37.716;-122.060;2022-11-15T01:56:06;12;9;
51052;PMS5003;37093;37.716;-122.060;2022-11-15T01:58:38;12;9;
51052;PMS5003;37093;37.716;-122.060;2022-11-15T02:01:09;10;9;
51052;PMS5003;37093;37.716;-122.060;2022-11-15T02:03:41;11;9;
51052;PMS5003;37093;37.716;-122.060;2022-11-15T02:06:13;12;11;
51052;PMS5003;37093;37.716;-122.060;2022-11-15T02:08:42;19;12;
51052;PMS5003;37093;37.716;-122.060;2022-11-15T02:11:11;23;10;
51052;PMS5003;37093;37.716;-122.060;2022-11-15T02:13:40;11;10;
51052;PMS5003;37093;37.716;-122.060;2022-11-15T02:16:11;9;6;
51052;PMS5003;37093;37.716;-122.060;2022-11-15T02:18:49;11;11;
51052;PMS5003;37093;37.716;-122.060;2022-11-15T02:21:26;11;9;
51052;PMS5003;37093;37.716;-122.060;2022-11-15T02:24:14;11;11;
51052;PMS5003;37093;37.716;-122.060;2022-11-15T02:27:11;11;11;
51052;PMS5003;37093;37.716;-122.060;2022-11-15T02:30:03;22;11;
51052;PMS5003;37093;37.716;-122.060;2022-11-15T02:32:52;11;11;
51052;PMS5003;37093;37.716;-122.060;2022-11-15T02:35:28;17;10;
51052;PMS5003;37093;37.716;-122.060;2022-11-15T02:38:06;27;13;
51052;PMS5003;37093;37.716;-122.060;2022-11-15T02:40:44;13;11;
51052;PMS5003;37093;37.716;-122.060;2022-11-15T02:43:20;14;12;
51052;PMS5003;37093;37.716;-122.060;2022-11-15T02:45:56;24;12;
51052;PMS5003;37093;37.716;-122.060;2022-11-15T02:48:30;19;12;
51052;PMS5003;37093;37.716;-122.060;2022-11-15T02:51:00;16;13;
51052;PMS5003;37093;37.716;-122.060;2022-11-15T02:53:29;11;11;
51052;PMS5003;37093;37.716;-122.060;2022-11-15T02:55:58;13;10;
51052;PMS5003;37093;37.716;-122.060;2022-11-15T02:58:35;12;12;
51052;PMS5003;37093;37.716;-122.060;2022-11-15T03:01:34;12;11;
51052;PMS5003;37093;37.716;-122.060;2022-11-15T03:04:17;22;12;
51052;PMS5003;37093;37.716;-122.060;2022-11-15T03:06:55;13;11;
51052;PMS5003;37093;37.716;-122.060;2022-11-15T03:09:31;14;10;
51052;PMS5003;37093;37.716;-122.060;2022-11-15T03:12:07;15;13;
51052;PMS5003;37093;37.716;-122.060;2022-11-15T03:14:56;13;11;
51052;PMS5003;37093;37.716;-122.060;2022-11-15T03:17:29;16;11;
51052;PMS5003;37093;37.716;-122.060;2022-11-15T03:20:04;13;10;
51052;PMS5003;37093;37.716;-122.060;2022-11-15T03:22:39;10;9;
51052;PMS5003;37093;37.716;-122.060;2022-11-15T03:25:13;13;10;
51052;PMS5003;37093;37.716;-122.060;2022-11-15T03:27:48;13;8;
51052;PMS5003;37093;37.716;-122.060;2022-11-15T03:30:20;16;15;
51052;PMS5003;37093;37.716;-122.060;2022-11-15T03:32:50;11;11;
51052;PMS5003;37093;37.716;-122.060;2022-11-15T03:35:23;15;13;
51052;PMS5003;37093;37.716;-122.060;2022-11-15T03:37:54;16;13;
51052;PMS5003;37093;37.716;-122.060;2022-11-15T03:40:29;11;11;
51052;PMS5003;37093;37.716;-122.060;2022-11-15T03:43:04;13;13;
51052;PMS5003;37093;37.716;-122.060;2022-11-15T03:45:39;25;12;
51052;PMS5003;37093;37.716;-122.060;2022-11-15T03:48:12;15;12;
51052;PMS5003;37093;37.716;-122.060;2022-11-15T03:50:44;14;12;
51052;PMS5003;37093;37.716;-122.060;2022-11-15T03:53:14;15;14;
51052;PMS5003;37093;37.716;-122.060;2022-11-15T03:55:44;17;11;
51052;PMS5003;37093;37.716;-122.060;2022-11-15T03:58:12;14;13;
51052;PMS5003;37093;37.716;-122.060;2022-11-15T04:00:41;17;14;
51052;PMS5003;37093;37.716;-122.060;2022-11-15T04:03:09;17;12;
51052;PMS5003;37093;37.716;-122.060;2022-11-15T04:05:38;14;12;
51052;PMS5003;37093;37.716;-122.060;2022-11-15T04:08:06;20;17;
51052;PMS5003;37093;37.716;-122.060;2022-11-15T04:10:35;19;16;
51052;PMS5003;37093;37.716;-122.060;2022-11-15T04:13:03;16;14;
51052;PMS5003;37093;37.716;-122.060;2022-11-15T04:15:31;28;14;
51052;PMS5003;37093;37.716;-122.060;2022-11-15T04:18:00;17;16;
51052;PMS5003;37093;37.716;-122.060;2022-11-15T04:20:29;13;10;
51052;PMS5003;37093;37.716;-122.060;2022-11-15T04:22:59;17;16;
51052;PMS5003;37093;37.716;-122.060;2022-11-15T04:25:29;19;15;
51052;PMS5003;37093;37.716;-122.060;2022-11-15T04:27:57;16;14;
51052;PMS5003;37093;37.716;-122.060;2022-11-15T04:30:26;18;16;
51052;PMS5003;37093;37.716;-122.060;2022-11-15T04:32:54;21;15;
51052;PMS5003;37093;37.716;-122.060;2022-11-15T04:35:23;14;14;
51052;PMS5003;37093;37.716;-122.060;2022-11-15T04:37:51;30;15;
51052;PMS5003;37093;37.716;-122.060;2022-11-15T04:40:21;16;14;
51052;PMS5003;37093;37.716;-122.060;2022-11-15T04:42:49;16;15;
51052;PMS5003;37093;37.716;-122.060;2022-11-15T04:45:18;20;16;
51052;PMS5003;37093;37.716;-122.060;2022-11-15T04:47:47;17;12;
51052;PMS5003;37093;37.716;-122.060;2022-11-15T04:50:15;14;12;
51052;PMS5003;37093;37.716;-122.060;2022-11-15T04:52:50;16;14;
51052;PMS5003;37093;37.716;-122.060;2022-11-15T04:55:19;21;14;
51052;PMS5003;37093;37.716;-122.060;2022-11-15T04:57:56;29;18;
51052;PMS5003;37093;37.716;-122.060;2022-11-15T05:00:25;17;15;
51052;PMS5003;37093;37.716;-122.060;2022-11-15T05:02:54;17;15;
51052;PMS5003;37093;37.716;-122.060;2022-11-15T05:05:23;21;15;
51052;PMS5003;37093;37.716;-122.060;2022-11-15T05:07:52;17;14;
51052;PMS5003;37093;37.716;-122.060;2022-11-15T05:10:20;17;16;
51052;PMS5003;37093;37.716;-122.060;2022-11-15T05:12:48;17;14;
51052;PMS5003;37093;37.716;-122.060;2022-11-15T05:15:17;16;13;
51052;PMS5003;37093;37.716;-122.060;2022-11-15T05:17:46;13;12;
51052;PMS5003;37093;37.716;-122.060;2022-11-15T05:20:14;15;13;
51052;PMS5003;37093;37.716;-122.060;2022-11-15T05:22:43;11;11;
51052;PMS5003;37093;37.716;-122.060;2022-11-15T05:25:11;12;11;
51052;PMS5003;37093;37.716;-122.060;2022-11-15T05:27:39;18;12;
51052;PMS5003;37093;37.716;-122.060;2022-11-15T05:30:08;27;12;
51052;PMS5003;37093;37.716;-122.060;2022-11-15T05:32:37;16;14;
51052;PMS5003;37093;37.716;-122.060;2022-11-15T05:35:07;13;12;
51052;PMS5003;37093;37.716;-122.060;2022-11-15T05:37:39;14;12;
51052;PMS5003;37093;37.716;-122.060;2022-11-15T05:40:09;12;12;
51052;PMS5003;37093;37.716;-122.060;2022-11-15T05:42:38;23;14;
51052;PMS5003;37093;37.716;-122.060;2022-11-15T05:45:07;17;13;
51052;PMS5003;37093;37.716;-122.060;2022-11-15T05:47:37;19;13;
51052;PMS5003;37093;37.716;-122.060;2022-11-15T05:50:06;15;13;
51052;PMS5003;37093;37.716;-122.060;2022-11-15T05:52:38;14;14;
51052;PMS5003;37093;37.716;-122.060;2022-11-15T05:55:07;14;13;
51052;PMS5003;37093;37.716;-122.060;2022-11-15T05:57:37;12;12;
51052;PMS5003;37093;37.716;-122.060;2022-11-15T06:00:08;14;13;
51052;PMS5003;37093;37.716;-122.060;2022-11-15T06:02:37;15;13;
51052;PMS5003;37093;37.716;-122.060;2022-11-15T06:05:06;16;13;
51052;PMS5003;37093;37.716;-122.060;2022-11-15T06:07:34;19;16;
51052;PMS5003;37093;37.716;-122.060;2022-11-15T06:10:03;23;17;
51052;PMS5003;37093;37.716;-122.060;2022-11-15T06:12:33;18;16;
51052;PMS5003;37093;37.716;-122.060;2022-11-15T06:15:01;14;14;
51052;PMS5003;37093;37.716;-122.060;2022-11-15T06:17:31;18;16;
51052;PMS5003;37093;37.716;-122.060;2022-11-15T06:19:59;17;15;
51052;PMS5003;37093;37.716;-122.060;2022-11-15T06:22:28;19;16;
51052;PMS5003;37093;37.716;-122.060;2022-11-15T06:24:56;19;16;
51052;PMS5003;37093;37.716;-122.060;2022-11-15T06:27:24;16;14;
51052;PMS5003;37093;37.716;-122.060;2022-11-15T06:29:52;24;17;
51052;PMS5003;37093;37.716;-122.060;2022-11-15T06:32:20;15;15;
51052;PMS5003;37093;37.716;-122.060;2022-11-15T06:34:49;19;17;
51052;PMS5003;37093;37.716;-122.060;2022-11-15T06:37:17;15;15;
51052;PMS5003;37093;37.716;-122.060;2022-11-15T06:39:45;15;15;
51052;PMS5003;37093;37.716;-122.060;2022-11-15T06:42:14;16;15;
51052;PMS5003;37093;37.716;-122.060;2022-11-15T06:44:42;12;11;
51052;PMS5003;37093;37.716;-122.060;2022-11-15T06:47:11;13;12;
51052;PMS5003;37093;37.716;-122.060;2022-11-15T06:49:38;19;16;
51052;PMS5003;37093;37.716;-122.060;2022-11-15T06:52:07;19;13;
51052;PMS5003;37093;37.716;-122.060;2022-11-15T06:54:35;17;12;
51052;PMS5003;37093;37.716;-122.060;2022-11-15T06:57:04;15;13;
51052;PMS5003;37093;37.716;-122.060;2022-11-15T06:59:32;10;10;
51052;PMS5003;37093;37.716;-122.060;2022-11-15T07:02:01;13;10;
51052;PMS5003;37093;37.716;-122.060;2022-11-15T07:04:30;13;12;
51052;PMS5003;37093;37.716;-122.060;2022-11-15T07:06:59;12;11;
51052;PMS5003;37093;37.716;-122.060;2022-11-15T07:09:27;11;11;
51052;PMS5003;37093;37.716;-122.060;2022-11-15T07:11:55;14;12;
51052;PMS5003;37093;37.716;-122.060;2022-11-15T07:14:23;16;14;
51052;PMS5003;37093;37.716;-122.060;2022-11-15T07:16:51;16;16;
51052;PMS5003;37093;37.716;-122.060;2022-11-15T07:19:20;18;15;
51052;PMS5003;37093;37.716;-122.060;2022-11-15T07:21:48;25;15;
51052;PMS5003;37093;37.716;-122.060;2022-11-15T07:24:16;19;14;
51052;PMS5003;37093;37.716;-122.060;2022-11-15T07:26:44;20;17;
51052;PMS5003;37093;37.716;-122.060;2022-11-15T07:29:13;17;16;
51052;PMS5003;37093;37.716;-122.060;2022-11-15T07:31:41;19;13;
51052;PMS5003;37093;37.716;-122.060;2022-11-15T07:34:10;14;13;
51052;PMS5003;37093;37.716;-122.060;2022-11-15T07:36:38;14;11;
51052;PMS5003;37093;37.716;-122.060;2022-11-15T07:39:06;27;13;
51052;PMS5003;37093;37.716;-122.060;2022-11-15T07:41:35;14;10;
51052;PMS5003;37093;37.716;-122.060;2022-11-15T07:44:03;14;12;
51052;PMS5003;37093;37.716;-122.060;2022-11-15T07:46:31;16;13;
51052;PMS5003;37093;37.716;-122.060;2022-11-15T07:49:00;15;13;
51052;PMS5003;37093;37.716;-122.060;2022-11-15T07:51:28;18;15;
51052;PMS5003;37093;37.716;-122.060;2022-11-15T07:53:56;19;13;
51052;PMS5003;37093;37.716;-122.060;2022-11-15T07:56:25;15;11;
51052;PMS5003;37093;37.716;-122.060;2022-11-15T07:58:54;14;13;
51052;PMS5003;37093;37.716;-122.060;2022-11-15T08:01:08;16;14;
51052;PMS5003;37093;37.716;-122.060;2022-11-15T08:03:38;19;18;
51052;PMS5003;37093;37.716;-122.060;2022-11-15T08:06:07;17;12;
51052;PMS5003;37093;37.716;-122.060;2022-11-15T08:08:35;12;12;
51052;PMS5003;37093;37.716;-122.060;2022-11-15T08:11:04;22;15;
51052;PMS5003;37093;37.716;-122.060;2022-11-15T08:13:32;17;15;
51052;PMS5003;37093;37.716;-122.060;2022-11-15T08:16:00;15;13;
51052;PMS5003;37093;37.716;-122.060;2022-11-15T08:18:29;13;10;
51052;PMS5003;37093;37.716;-122.060;2022-11-15T08:20:58;12;12;
51052;PMS5003;37093;37.716;-122.060;2022-11-15T08:23:27;15;10;
51052;PMS5003;37093;37.716;-122.060;2022-11-15T08:25:59;12;11;
51052;PMS5003;37093;37.716;-122.060;2022-11-15T08:28:28;14;12;
51052;PMS5003;37093;37.716;-122.060;2022-11-15T08:30:57;13;11;
51052;PMS5003;37093;37.716;-122.060;2022-11-15T08:33:25;13;11;
51052;PMS5003;37093;37.716;-122.060;2022-11-15T08:35:56;13;13;
51052;PMS5003;37093;37.716;-122.060;2022-11-15T08:38:25;11;9;
51052;PMS5003;37093;37.716;-122.060;2022-11-15T08:40:53;10;10;
51052;PMS5003;37093;37.716;-122.060;2022-11-15T08:43:26;10;10;
51052;PMS5003;37093;37.716;-122.060;2022-11-15T08:45:55;18;12;
51052;PMS5003;37093;37.716;-122.060;2022-11-15T08:48:23;12;10;
51052;PMS5003;37093;37.716;-122.060;2022-11-15T08:50:53;14;11;
51052;PMS5003;37093;37.716;-122.060;2022-11-15T08:53:22;17;11;
51052;PMS5003;37093;37.716;-122.060;2022-11-15T08:55:50;14;13;
51052;PMS5003;37093;37.716;-122.060;2022-11-15T08:58:19;21;11;
51052;PMS5003;37093;37.716;-122.060;2022-11-15T09:00:47;15;13;
51052;PMS5003;37093;37.716;-122.060;2022-11-15T09:03:15;18;13;
51052;PMS5003;37093;37.716;-122.060;2022-11-15T09:05:44;15;13;
51052;PMS5003;37093;37.716;-122.060;2022-11-15T09:08:13;18;14;
51052;PMS5003;37093;37.716;-122.060;2022-11-15T09:10:41;16;14;
51052;PMS5003;37093;37.716;-122.060;2022-11-15T09:13:09;22;11;
51052;PMS5003;37093;37.716;-122.060;2022-11-15T09:15:37;15;12;
51052;PMS5003;37093;37.716;-122.060;2022-11-15T09:18:06;13;13;
51052;PMS5003;37093;37.716;-122.060;2022-11-15T09:20:35;14;12;
51052;PMS5003;37093;37.716;-122.060;2022-11-15T09:23:03;17;13;
51052;PMS5003;37093;37.716;-122.060;2022-11-15T09:25:32;19;15;
51052;PMS5003;37093;37.716;-122.060;2022-11-15T09:28:03;10;9;
51052;PMS5003;37093;37.716;-122.060;2022-11-15T09:30:33;14;9;
51052;PMS5003;37093;37.716;-122.060;2022-11-15T09:33:06;9;9;
51052;PMS5003;37093;37.716;-122.060;2022-11-15T09:35:34;10;10;
51052;PMS5003;37093;37.716;-122.060;2022-11-15T09:38:03;13;11;
51052;PMS5003;37093;37.716;-122.060;2022-11-15T09:40:32;10;10;
51052;PMS5003;37093;37.716;-122.060;2022-11-15T09:43:06;10;8;
51052;PMS5003;37093;37.716;-122.060;2022-11-15T09:45:59;11;11;
51052;PMS5003;37093;37.716;-122.060;2022-11-15T09:48:43;10;10;
51052;PMS5003;37093;37.716;-122.060;2022-11-15T09:51:21;8;8;
51052;PMS5003;37093;37.716;-122.060;2022-11-15T09:53:57;13;9;
51052;PMS5003;37093;37.716;-122.060;2022-11-15T09:56:32;13;12;
51052;PMS5003;37093;37.716;-122.060;2022-11-15T09:59:10;12;9;
51052;PMS5003;37093;37.716;-122.060;2022-11-15T10:01:51;15;11;
51052;PMS5003;37093;37.716;-122.060;2022-11-15T10:04:28;13;11;
51052;PMS5003;37093;37.716;-122.060;2022-11-15T10:07:00;12;10;
51052;PMS5003;37093;37.716;-122.060;2022-11-15T10:09:37;13;9;
51052;PMS5003;37093;37.716;-122.060;2022-11-15T10:12:12;11;10;
51052;PMS5003;37093;37.716;-122.060;2022-11-15T10:14:42;14;11;
51052;PMS5003;37093;37.716;-122.060;2022-11-15T10:17:23;11;11;
51052;PMS5003;37093;37.716;-122.060;2022-11-15T10:20:20;11;11;
51052;PMS5003;37093;37.716;-122.060;2022-11-15T10:22:51;10;9;
51052;PMS5003;37093;37.716;-122.060;2022-11-15T10:25:23;11;11;
51052;PMS5003;37093;37.716;-122.060;2022-11-15T10:27:54;13;12;
51052;PMS5003;37093;37.716;-122.060;2022-11-15T10:30:29;12;11;
51052;PMS5003;37093;37.716;-122.060;2022-11-15T10:33:08;13;12;
51052;PMS5003;37093;37.716;-122.060;2022-11-15T10:35:44;18;10;
51052;PMS5003;37093;37.716;-122.060;2022-11-15T10:38:12;8;8;
51052;PMS5003;37093;37.716;-122.060;2022-11-15T10:40:41;13;9;
51052;PMS5003;37093;37.716;-122.060;2022-11-15T10:43:13;10;10;
51052;PMS5003;37093;37.716;-122.060;2022-11-15T10:45:44;12;9;
51052;PMS5003;37093;37.716;-122.060;2022-11-15T10:48:22;13;10;
51052;PMS5003;37093;37.716;-122.060;2022-11-15T10:50:52;7;7;
51052;PMS5003;37093;37.716;-122.060;2022-11-15T10:53:25;12;11;
51052;PMS5003;37093;37.716;-122.060;2022-11-15T10:55:58;8;8;
51052;PMS5003;37093;37.716;-122.060;2022-11-15T10:58:33;12;11;
51052;PMS5003;37093;37.716;-122.060;2022-11-15T11:01:09;12;11;
51052;PMS5003;37093;37.716;-122.060;2022-11-15T11:03:42;21;10;
51052;PMS5003;37093;37.716;-122.060;2022-11-15T11:06:12;12;10;
51052;PMS5003;37093;37.716;-122.060;2022-11-15T11:08:53;12;11;
51052;PMS5003;37093;37.716;-122.060;2022-11-15T11:11:23;15;12;
51052;PMS5003;37093;37.716;-122.060;2022-11-15T11:13:52;10;10;
51052;PMS5003;37093;37.716;-122.060;2022-11-15T11:16:25;13;11;
51052;PMS5003;37093;37.716;-122.060;2022-11-15T11:19:12;9;9;
51052;PMS5003;37093;37.716;-122.060;2022-11-15T11:21:49;13;12;
51052;PMS5003;37093;37.716;-122.060;2022-11-15T11:24:27;11;11;
51052;PMS5003;37093;37.716;-122.060;2022-11-15T11:27:06;13;11;
51052;PMS5003;37093;37.716;-122.060;2022-11-15T11:29:49;15;13;
51052;PMS5003;37093;37.716;-122.060;2022-11-15T11:32:37;19;13;
51052;PMS5003;37093;37.716;-122.060;2022-11-15T11:35:19;12;12;
51052;PMS5003;37093;37.716;-122.060;2022-11-15T11:37:51;13;12;
51052;PMS5003;37093;37.716;-122.060;2022-11-15T11:40:27;11;10;
51052;PMS5003;37093;37.716;-122.060;2022-11-15T11:42:59;17;10;
51052;PMS5003;37093;37.716;-122.060;2022-11-15T11:45:42;16;8;
51052;PMS5003;37093;37.716;-122.060;2022-11-15T11:48:23;32;17;
51052;PMS5003;37093;37.716;-122.060;2022-11-15T11:51:08;21;13;
51052;PMS5003;37093;37.716;-122.060;2022-11-15T11:53:44;14;14;
51052;PMS5003;37093;37.716;-122.060;2022-11-15T11:56:21;18;14;
51052;PMS5003;37093;37.716;-122.060;2022-11-15T11:58:54;18;10;
51052;PMS5003;37093;37.716;-122.060;2022-11-15T12:01:28;14;11;
51052;PMS5003;37093;37.716;-122.060;2022-11-15T12:04:03;12;11;
51052;PMS5003;37093;37.716;-122.060;2022-11-15T12:06:41;12;12;
51052;PMS5003;37093;37.716;-122.060;2022-11-15T12:09:17;13;10;
51052;PMS5003;37093;37.716;-122.060;2022-11-15T12:11:52;11;10;
51052;PMS5003;37093;37.716;-122.060;2022-11-15T12:14:31;10;10;
51052;PMS5003;37093;37.716;-122.060;2022-11-15T12:17:07;24;10;
51052;PMS5003;37093;37.716;-122.060;2022-11-15T12:19:37;21;9;
51052;PMS5003;37093;37.716;-122.060;2022-11-15T12:22:08;9;9;
51052;PMS5003;37093;37.716;-122.060;2022-11-15T12:24:45;12;10;
51052;PMS5003;37093;37.716;-122.060;2022-11-15T12:27:18;12;11;
51052;PMS5003;37093;37.716;-122.060;2022-11-15T12:29:54;11;10;
51052;PMS5003;37093;37.716;-122.060;2022-11-15T12:32:28;9;8;
51052;PMS5003;37093;37.716;-122.060;2022-11-15T12:35:00;12;9;
51052;PMS5003;37093;37.716;-122.060;2022-11-15T12:37:54;10;8;
51052;PMS5003;37093;37.716;-122.060;2022-11-15T12:40:24;14;8;
51052;PMS5003;37093;37.716;-122.060;2022-11-15T12:43:00;10;9;
51052;PMS5003;37093;37.716;-122.060;2022-11-15T12:46:02;10;8;
51052;PMS5003;37093;37.716;-122.060;2022-11-15T12:48:47;8;7;
51052;PMS5003;37093;37.716;-122.060;2022-11-15T12:51:22;7;7;
51052;PMS5003;37093;37.716;-122.060;2022-11-15T12:55:29;11;9;
51052;PMS5003;37093;37.716;-122.060;2022-11-15T12:58:24;8;7;
51052;PMS5003;37093;37.716;-122.060;2022-11-15T13:01:06;9;7;
51052;PMS5003;37093;37.716;-122.060;2022-11-15T13:03:35;8;8;
51052;PMS5003;37093;37.716;-122.060;2022-11-15T13:06:38;9;6;
51052;PMS5003;37093;37.716;-122.060;2022-11-15T13:10:31;7;6;
51052;PMS5003;37093;37.716;-122.060;2022-11-15T13:13:00;9;7;
51052;PMS5003;37093;37.716;-122.060;2022-11-15T13:15:32;8;6;
51052;PMS5003;37093;37.716;-122.060;2022-11-15T13:18:38;11;8;
51052;PMS5003;37093;37.716;-122.060;2022-11-15T13:21:23;7;7;
51052;PMS5003;37093;37.716;-122.060;2022-11-15T13:23:53;10;7;
51052;PMS5003;37093;37.716;-122.060;2022-11-15T13:26:21;8;7;
51052;PMS5003;37093;37.716;-122.060;2022-11-15T13:28:51;9;9;
51052;PMS5003;37093;37.716;-122.060;2022-11-15T13:31:22;8;7;
51052;PMS5003;37093;37.716;-122.060;2022-11-15T13:33:53;8;7;
51052;PMS5003;37093;37.716;-122.060;2022-11-15T13:36:26;7;6;
51052;PMS5003;37093;37.716;-122.060;2022-11-15T13:38:58;8;8;
51052;PMS5003;37093;37.716;-122.060;2022-11-15T13:41:29;7;6;
51052;PMS5003;37093;37.716;-122.060;2022-11-15T13:43:59;9;7;
51052;PMS5003;37093;37.716;-122.060;2022-11-15T13:46:29;6;6;
51052;PMS5003;37093;37.716;-122.060;2022-11-15T13:48:59;9;7;
51052;PMS5003;37093;37.716;-122.060;2022-11-15T13:51:33;9;7;
51052;PMS5003;37093;37.716;-122.060;2022-11-15T13:54:07;10;7;
51052;PMS5003;37093;37.716;-122.060;2022-11-15T13:56:42;8;8;
51052;PMS5003;37093;37.716;-122.060;2022-11-15T13:59:15;9;7;
51052;PMS5003;37093;37.716;-122.060;2022-11-15T14:01:51;9;7;
51052;PMS5003;37093;37.716;-122.060;2022-11-15T14:04:21;10;9;
51052;PMS5003;37093;37.716;-122.060;2022-11-15T14:06:52;10;8;
51052;PMS5003;37093;37.716;-122.060;2022-11-15T14:09:33;11;8;
51052;PMS5003;37093;37.716;-122.060;2022-11-15T14:12:21;11;8;
51052;PMS5003;37093;37.716;-122.060;2022-11-15T14:14:54;11;9;
51052;PMS5003;37093;37.716;-122.060;2022-11-15T14:17:33;9;9;
51052;PMS5003;37093;37.716;-122.060;2022-11-15T14:20:19;12;9;
51052;PMS5003;37093;37.716;-122.060;2022-11-15T14:22:55;12;11;
51052;PMS5003;37093;37.716;-122.060;2022-11-15T14:25:25;10;9;
51052;PMS5003;37093;37.716;-122.060;2022-11-15T14:28:12;19;10;
51052;PMS5003;37093;37.716;-122.060;2022-11-15T14:30:43;9;9;
51052;PMS5003;37093;37.716;-122.060;2022-11-15T14:33:17;9;8;
51052;PMS5003;37093;37.716;-122.060;2022-11-15T14:35:47;5;5;
51052;PMS5003;37093;37.716;-122.060;2022-11-15T14:38:16;7;5;
51052;PMS5003;37093;37.716;-122.060;2022-11-15T14:40:45;8;6;
51052;PMS5003;37093;37.716;-122.060;2022-11-15T14:43:13;8;6;
51052;PMS5003;37093;37.716;-122.060;2022-11-15T14:45:42;5;5;
51052;PMS5003;37093;37.716;-122.060;2022-11-15T14:48:11;6;5;
51052;PMS5003;37093;37.716;-122.060;2022-11-15T14:50:39;9;9;
51052;PMS5003;37093;37.716;-122.060;2022-11-15T14:53:11;10;8;
51052;PMS5003;37093;37.716;-122.060;2022-11-15T14:55:42;7;6;
51052;PMS5003;37093;37.716;-122.060;2022-11-15T14:58:10;9;6;
51052;PMS5003;37093;37.716;-122.060;2022-11-15T15:00:40;8;6;
51052;PMS5003;37093;37.716;-122.060;2022-11-15T15:03:08;6;6;
51052;PMS5003;37093;37.716;-122.060;2022-11-15T15:05:38;9;6;
51052;PMS5003;37093;37.716;-122.060;2022-11-15T15:08:07;9;7;
51052;PMS5003;37093;37.716;-122.060;2022-11-15T15:10:37;7;7;
51052;PMS5003;37093;37.716;-122.060;2022-11-15T15:13:10;8;5;
51052;PMS5003;37093;37.716;-122.060;2022-11-15T15:15:43;5;5;
51052;PMS5003;37093;37.716;-122.060;2022-11-15T15:18:12;7;6;
51052;PMS5003;37093;37.716;-122.060;2022-11-15T15:20:41;6;5;
51052;PMS5003;37093;37.716;-122.060;2022-11-15T15:23:14;6;5;
51052;PMS5003;37093;37.716;-122.060;2022-11-15T15:25:43;4;4;
51052;PMS5003;37093;37.716;-122.060;2022-11-15T15:28:12;8;6;
51052;PMS5003;37093;37.716;-122.060;2022-11-15T15:30:41;9;6;
51052;PMS5003;37093;37.716;-122.060;2022-11-15T15:33:10;10;6;
51052;PMS5003;37093;37.716;-122.060;2022-11-15T15:35:38;8;7;
51052;PMS5003;37093;37.716;-122.060;2022-11-15T15:38:08;10;7;
51052;PMS5003;37093;37.716;-122.060;2022-11-15T15:40:38;10;8;
51052;PMS5003;37093;37.716;-122.060;2022-11-15T15:43:07;14;12;
51052;PMS5003;37093;37.716;-122.060;2022-11-15T15:45:36;14;12;
51052;PMS5003;37093;37.716;-122.060;2022-11-15T15:48:08;14;11;
51052;PMS5003;37093;37.716;-122.060;2022-11-15T15:50:39;14;13;
51052;PMS5003;37093;37.716;-122.060;2022-11-15T15:53:08;10;10;
51052;PMS5003;37093;37.716;-122.060;2022-11-15T15:55:38;11;11;
51052;PMS5003;37093;37.716;-122.060;2022-11-15T15:58:06;12;12;
51052;PMS5003;37093;37.716;-122.060;2022-11-15T16:00:35;15;12;
51052;PMS5003;37093;37.716;-122.060;2022-11-15T16:03:03;14;13;
51052;PMS5003;37093;37.716;-122.060;2022-11-15T16:05:32;15;12;
51052;PMS5003;37093;37.716;-122.060;2022-11-15T16:08:00;14;11;
51052;PMS5003;37093;37.716;-122.060;2022-11-15T16:10:29;11;11;
51052;PMS5003;37093;37.716;-122.060;2022-11-15T16:13:01;20;12;